createdAt,value
2023-03-08T00:01:35.618Z,8.10
2023-03-08T00:04:04.355Z,8.27
2023-03-08T00:06:35.397Z,7.83
2023-03-08T00:09:04.349Z,8.03
2023-03-08T00:11:34.194Z,7.67
2023-03-08T00:14:03.288Z,8.60
2023-03-08T00:16:32.454Z,8.17
2023-03-08T00:19:00.777Z,7.63
2023-03-08T00:21:30.735Z,6.77
2023-03-08T00:24:00.801Z,7.50
2023-03-08T00:26:29.563Z,7.23
2023-03-08T00:28:58.205Z,7.93
2023-03-08T00:31:29.366Z,7.67
2023-03-08T00:33:59.343Z,7.43
2023-03-08T00:36:28.330Z,8.00
2023-03-08T00:38:57.519Z,8.00
2023-03-08T00:41:27.910Z,8.27
2023-03-08T00:43:56.316Z,6.70
2023-03-08T00:46:26.397Z,7.30
2023-03-08T00:48:55.203Z,7.13
2023-03-08T00:51:23.529Z,7.60
2023-03-08T00:53:52.568Z,7.10
2023-03-08T00:56:20.919Z,7.17
2023-03-08T00:58:51.441Z,7.13
2023-03-08T01:01:20.515Z,7.70
2023-03-08T01:03:51.422Z,7.00
2023-03-08T01:06:20.309Z,6.90
2023-03-08T01:08:48.817Z,7.30
2023-03-08T01:11:19.069Z,7.27
2023-03-08T01:13:49.124Z,7.27
2023-03-08T01:16:21.613Z,6.90
2023-03-08T01:18:51.825Z,7.17
2023-03-08T01:21:22.269Z,7.33
2023-03-08T01:23:50.915Z,6.77
2023-03-08T01:26:22.593Z,7.10
2023-03-08T01:28:52.888Z,7.17
2023-03-08T01:31:26.284Z,7.37
2023-03-08T01:33:56.339Z,6.70
2023-03-08T01:36:28.778Z,7.23
2023-03-08T01:38:57.392Z,7.50
2023-03-08T01:41:29.284Z,6.97
2023-03-08T01:43:58.770Z,6.30
2023-03-08T01:46:31.380Z,7.13
2023-03-08T01:49:16.762Z,6.70
2023-03-08T01:51:51.263Z,6.83
2023-03-08T01:54:24.919Z,7.27
2023-03-08T01:56:56.417Z,7.13
2023-03-08T01:59:27.455Z,7.57
2023-03-08T02:06:10.855Z,6.93
2023-03-08T02:08:39.792Z,7.30
2023-03-08T02:11:10.011Z,7.30
2023-03-08T02:13:40.254Z,7.67
2023-03-08T02:16:13.331Z,8.13
2023-03-08T02:18:57.519Z,7.87
2023-03-08T02:21:28.872Z,7.17
2023-03-08T02:24:04.283Z,7.53
2023-03-08T02:26:33.384Z,6.87
2023-03-08T02:29:02.848Z,8.03
2023-03-08T02:31:31.611Z,7.23
2023-03-08T02:34:00.384Z,7.63
2023-03-08T02:36:28.920Z,7.17
2023-03-08T02:39:00.147Z,7.30
2023-03-08T02:41:30.553Z,8.23
2023-03-08T02:43:59.539Z,8.10
2023-03-08T02:46:31.148Z,8.20
2023-03-08T02:48:59.698Z,7.63
2023-03-08T02:51:29.001Z,8.13
2023-03-08T02:54:01.532Z,8.03
2023-03-08T02:56:31.203Z,8.47
2023-03-08T02:58:59.524Z,8.10
2023-03-08T03:01:29.439Z,7.90
2023-03-08T03:03:57.949Z,8.17
2023-03-08T03:06:27.885Z,8.50
2023-03-08T03:08:58.146Z,8.53
2023-03-08T03:11:29.654Z,8.33
2023-03-08T03:14:00.249Z,7.53
2023-03-08T03:16:35.406Z,8.27
2023-03-08T03:19:03.715Z,7.87
2023-03-08T03:21:32.903Z,8.77
2023-03-08T03:24:02.238Z,8.03
2023-03-08T03:26:40.135Z,8.17
2023-03-08T03:29:09.704Z,8.17
2023-03-08T03:31:41.339Z,7.93
2023-03-08T03:34:10.445Z,8.30
2023-03-08T03:36:40.885Z,7.73
2023-03-08T03:39:09.437Z,8.40
2023-03-08T03:41:42.174Z,7.43
2023-03-08T03:44:14.136Z,8.43
2023-03-08T03:46:45.267Z,8.07
2023-03-08T03:49:18.266Z,8.57
2023-03-08T03:51:49.429Z,8.10
2023-03-08T03:54:32.774Z,9.27
2023-03-08T03:57:03.692Z,8.27
2023-03-08T03:59:36.720Z,7.87
2023-03-08T04:02:06.395Z,8.20
2023-03-08T04:04:41.104Z,8.43
2023-03-08T04:07:12.809Z,7.73
2023-03-08T04:09:48.774Z,8.13
2023-03-08T04:12:20.348Z,8.40
2023-03-08T04:14:49.004Z,9.20
2023-03-08T04:17:18.804Z,8.07
2023-03-08T04:19:54.344Z,9.00
2023-03-08T04:22:23.601Z,9.20
2023-03-08T04:25:03.619Z,8.90
2023-03-08T04:27:44.592Z,9.97
2023-03-08T04:30:15.128Z,8.83
2023-03-08T04:32:44.239Z,9.43
2023-03-08T04:35:13.242Z,10.07
2023-03-08T04:37:45.484Z,11.43
2023-03-08T04:40:15.389Z,12.00
2023-03-08T04:42:52.953Z,10.53
2023-03-08T04:45:27.924Z,9.40
2023-03-08T04:48:01.265Z,8.80
2023-03-08T04:50:30.694Z,8.63
2023-03-08T04:52:59.574Z,9.40
2023-03-08T04:55:29.947Z,9.70
2023-03-08T04:58:00.158Z,9.13
2023-03-08T05:00:32.104Z,9.60
2023-03-08T05:03:00.607Z,10.03
2023-03-08T05:05:29.908Z,10.17
2023-03-08T05:08:05.401Z,10.03
2023-03-08T05:10:37.265Z,10.10
2023-03-08T05:13:07.776Z,10.57
2023-03-08T05:15:36.578Z,9.37
2023-03-08T05:18:05.164Z,10.50
2023-03-08T05:20:33.616Z,8.63
2023-03-08T05:23:02.054Z,9.70
2023-03-08T05:25:42.163Z,9.03
2023-03-08T05:28:16.307Z,9.37
2023-03-08T05:30:46.962Z,9.50
2023-03-08T05:33:16.245Z,9.10
2023-03-08T05:35:44.633Z,9.77
2023-03-08T05:38:14.074Z,10.23
2023-03-08T05:40:42.802Z,9.77
2023-03-08T05:43:14.130Z,9.33
2023-03-08T05:45:42.713Z,9.53
2023-03-08T05:48:11.660Z,9.63
2023-03-08T05:50:40.134Z,9.57
2023-03-08T05:53:08.698Z,10.17
2023-03-08T05:55:37.580Z,9.53
2023-03-08T05:58:06.655Z,10.57
2023-03-08T06:00:37.253Z,10.47
2023-03-08T06:03:05.737Z,10.87
2023-03-08T06:05:38.463Z,10.20
2023-03-08T06:08:07.188Z,10.33
2023-03-08T06:10:35.586Z,10.10
2023-03-08T06:13:04.547Z,9.93
2023-03-08T06:15:33.134Z,10.40
2023-03-08T06:18:04.356Z,10.43
2023-03-08T06:20:33.233Z,10.10
2023-03-08T06:23:02.545Z,9.90
2023-03-08T06:25:33.026Z,10.83
2023-03-08T06:28:02.094Z,9.17
2023-03-08T06:30:37.373Z,9.87
2023-03-08T06:33:08.046Z,9.87
2023-03-08T06:35:37.476Z,9.33
2023-03-08T06:38:07.067Z,9.90
2023-03-08T06:40:38.556Z,10.23
2023-03-08T06:43:06.961Z,9.93
2023-03-08T06:45:39.483Z,10.03
2023-03-08T06:48:10.409Z,10.60
2023-03-08T06:50:38.828Z,10.30
2023-03-08T06:53:07.947Z,10.17
2023-03-08T06:55:47.170Z,10.63
2023-03-08T06:58:16.018Z,10.67
2023-03-08T07:00:44.318Z,10.90
2023-03-08T07:03:15.383Z,10.20
2023-03-08T07:05:43.869Z,10.73
2023-03-08T07:08:14.658Z,10.10
2023-03-08T07:10:43.531Z,10.53
2023-03-08T07:13:11.834Z,10.73
2023-03-08T07:15:41.825Z,9.73
2023-03-08T07:18:10.213Z,10.80
2023-03-08T07:20:41.599Z,10.43
2023-03-08T07:23:09.993Z,10.33
2023-03-08T07:25:39.718Z,10.77
2023-03-08T07:28:09.016Z,10.87
2023-03-08T07:30:37.406Z,10.70
2023-03-08T07:33:06.064Z,12.17
2023-03-08T07:35:34.489Z,11.63
2023-03-08T07:38:05.351Z,11.70
2023-03-08T07:40:34.130Z,11.03
2023-03-08T07:43:02.675Z,10.97
2023-03-08T07:45:51.389Z,12.33
2023-03-08T07:48:19.770Z,10.93
2023-03-08T07:50:49.298Z,11.37
2023-03-08T07:53:18.964Z,11.27
2023-03-08T07:55:47.840Z,12.47
2023-03-08T07:58:16.142Z,11.43
2023-03-08T08:00:45.234Z,12.17
2023-03-08T08:03:13.644Z,11.27
2023-03-08T08:05:42.915Z,11.83
2023-03-08T08:08:13.947Z,11.73
2023-03-08T08:10:45.615Z,11.70
2023-03-08T08:13:14.010Z,12.10
2023-03-08T08:15:43.546Z,12.63
2023-03-08T08:18:11.988Z,11.83
2023-03-08T08:20:40.381Z,13.03
2023-03-08T08:23:09.600Z,11.77
2023-03-08T08:25:40.392Z,12.40
2023-03-08T08:28:10.730Z,13.13
2023-03-08T08:30:39.061Z,13.10
2023-03-08T08:33:07.903Z,12.37
2023-03-08T08:35:43.048Z,13.47
2023-03-08T08:38:13.896Z,11.77
2023-03-08T08:40:42.244Z,12.77
2023-03-08T08:43:12.823Z,12.87
2023-03-08T08:45:44.527Z,11.97
2023-03-08T08:48:13.917Z,13.77
2023-03-08T08:50:43.438Z,13.27
2023-03-08T08:53:11.883Z,13.20
2023-03-08T08:55:42.183Z,11.73
2023-03-08T08:58:12.647Z,12.20
2023-03-08T09:00:41.646Z,11.63
2023-03-08T09:03:09.922Z,11.97
2023-03-08T09:05:41.116Z,11.23
2023-03-08T09:08:10.138Z,10.37
2023-03-08T09:10:41.291Z,11.03
2023-03-08T09:13:09.854Z,10.60
2023-03-08T09:15:39.657Z,10.60
2023-03-08T09:18:09.319Z,11.83
2023-03-08T09:20:37.674Z,11.00
2023-03-08T09:23:06.711Z,10.63
2023-03-08T09:25:35.257Z,11.13
2023-03-08T09:28:04.490Z,11.13
2023-03-08T09:30:32.944Z,11.97
2023-03-08T09:33:04.549Z,10.83
2023-03-08T09:35:32.937Z,10.67
2023-03-08T09:38:03.102Z,11.43
2023-03-08T09:40:40.396Z,10.63
2023-03-08T09:43:21.075Z,10.97
2023-03-08T09:45:53.530Z,10.27
2023-03-08T09:48:29.661Z,11.53
2023-03-08T09:51:01.097Z,10.73
2023-03-08T09:53:35.479Z,10.60
2023-03-08T09:56:06.463Z,11.23
2023-03-08T09:58:41.757Z,11.27
2023-03-08T10:01:23.235Z,10.93
2023-03-08T10:04:12.380Z,10.10
2023-03-08T10:06:48.460Z,9.73
2023-03-08T10:09:28.427Z,12.13
2023-03-08T10:12:05.689Z,12.03
2023-03-08T10:14:39.701Z,10.80
2023-03-08T10:17:13.748Z,11.47
2023-03-08T10:19:49.272Z,11.37
2023-03-08T10:22:24.624Z,11.77
2023-03-08T10:24:57.362Z,12.07
2023-03-08T10:27:28.636Z,12.07
2023-03-08T10:29:58.720Z,12.27
2023-03-08T10:32:29.242Z,12.20
2023-03-08T10:35:03.619Z,13.07
2023-03-08T10:37:34.629Z,12.40
2023-03-08T10:40:07.076Z,12.67
2023-03-08T10:42:37.351Z,12.63
2023-03-08T10:45:16.273Z,13.63
2023-03-08T10:47:55.997Z,12.33
2023-03-08T10:50:28.086Z,12.63
2023-03-08T10:52:57.517Z,13.03
2023-03-08T10:55:31.379Z,12.97
2023-03-08T10:58:02.549Z,12.73
2023-03-08T11:00:35.680Z,13.20
2023-03-08T11:03:20.084Z,14.10
2023-03-08T11:05:59.289Z,13.80
2023-03-08T11:08:30.860Z,13.10
2023-03-08T11:11:04.621Z,13.17
2023-03-08T11:13:35.452Z,12.87
2023-03-08T11:16:17.607Z,13.03
2023-03-08T11:18:58.861Z,11.37
2023-03-08T11:21:38.219Z,13.43
2023-03-08T11:24:23.624Z,12.10
2023-03-08T11:27:06.090Z,12.90
2023-03-08T11:29:51.180Z,12.10
2023-03-08T11:32:39.933Z,13.03
2023-03-08T11:35:18.151Z,11.87
2023-03-08T11:37:54.832Z,13.60
2023-03-08T11:40:26.262Z,13.03
2023-03-08T11:43:05.971Z,11.63
2023-03-08T11:45:40.900Z,12.90
2023-03-08T11:48:34.200Z,13.40
2023-03-08T11:51:08.354Z,12.73
2023-03-08T11:53:51.503Z,12.33
2023-03-08T11:56:44.058Z,11.63
2023-03-08T11:59:20.733Z,14.53
2023-03-08T12:01:53.699Z,11.90
2023-03-08T12:04:28.157Z,12.93
2023-03-08T12:06:57.433Z,10.07
2023-03-08T12:09:31.723Z,10.97
2023-03-08T12:12:06.785Z,9.97
2023-03-08T12:14:37.353Z,11.83
2023-03-08T12:17:13.967Z,10.57
2023-03-08T12:19:44.616Z,10.90
2023-03-08T12:22:28.419Z,10.70
2023-03-08T12:25:05.786Z,10.83
2023-03-08T12:27:40.975Z,10.83
2023-03-08T12:30:20.997Z,11.63
2023-03-08T12:32:52.606Z,11.57
2023-03-08T12:35:32.963Z,10.33
2023-03-08T12:38:03.880Z,10.10
2023-03-08T12:40:43.680Z,11.40
2023-03-08T12:43:15.601Z,10.80
2023-03-08T12:45:45.252Z,10.67
2023-03-08T12:48:25.324Z,10.87
2023-03-08T12:51:00.968Z,11.43
2023-03-08T12:53:38.264Z,10.90
2023-03-08T12:56:23.811Z,10.67
2023-03-08T12:58:54.702Z,10.43
2023-03-08T13:01:37.329Z,10.13
2023-03-08T13:04:08.119Z,10.60
2023-03-08T13:07:10.867Z,9.23
2023-03-08T13:09:50.836Z,8.77
2023-03-08T13:12:26.652Z,8.33
2023-03-08T13:15:23.184Z,8.30
2023-03-08T13:17:55.563Z,8.70
2023-03-08T13:20:27.300Z,8.27
2023-03-08T13:23:03.776Z,7.97
2023-03-08T13:25:51.754Z,7.83
2023-03-08T13:28:24.258Z,7.97
2023-03-08T13:30:54.292Z,7.67
2023-03-08T13:33:26.158Z,7.60
2023-03-08T13:35:59.387Z,7.97
2023-03-08T13:38:30.884Z,8.60
2023-03-08T13:41:00.952Z,8.07
2023-03-08T13:43:33.297Z,7.57
2023-03-08T13:46:04.188Z,7.27
2023-03-08T13:48:35.483Z,7.43
2023-03-08T13:51:04.409Z,7.67
2023-03-08T13:53:36.180Z,7.00
2023-03-08T13:56:07.099Z,7.27
2023-03-08T13:58:39.594Z,7.03
2023-03-08T14:01:13.326Z,6.57
2023-03-08T14:03:44.022Z,6.97
2023-03-08T14:06:19.703Z,7.40
2023-03-08T14:08:49.540Z,6.77
2023-03-08T14:11:20.809Z,6.17
2023-03-08T14:13:53.464Z,6.22
2023-03-08T14:16:29.683Z,6.20
2023-03-08T14:18:59.080Z,6.80
2023-03-08T14:21:29.471Z,4.82
2023-03-08T14:24:00.187Z,5.07
2023-03-08T14:26:31.922Z,4.20
2023-03-08T14:29:13.520Z,4.25
2023-03-08T14:31:54.731Z,3.88
2023-03-08T14:34:26.220Z,4.40
2023-03-08T14:36:58.578Z,4.00
2023-03-08T14:39:29.980Z,3.60
2023-03-08T14:41:58.603Z,3.13
2023-03-08T14:44:30.389Z,3.40
2023-03-08T14:47:09.187Z,3.60
2023-03-08T14:49:39.241Z,3.67
2023-03-08T14:52:20.681Z,2.95
2023-03-08T14:54:49.430Z,3.47
2023-03-08T14:57:20.418Z,3.13
2023-03-08T14:59:51.168Z,3.10
2023-03-08T15:02:20.413Z,3.17
2023-03-08T15:04:48.776Z,2.83
2023-03-08T15:07:20.740Z,3.47
2023-03-08T15:09:51.421Z,3.15
2023-03-08T15:12:20.153Z,3.10
2023-03-08T15:14:49.891Z,2.83
2023-03-08T15:17:19.110Z,2.92
2023-03-08T15:19:47.423Z,2.80
2023-03-08T15:22:18.821Z,2.60
2023-03-08T15:24:47.257Z,3.25
2023-03-08T15:27:16.382Z,3.00
2023-03-08T15:29:44.736Z,3.03
2023-03-08T15:32:14.436Z,2.58
2023-03-08T15:34:42.819Z,2.63
2023-03-08T15:37:14.748Z,2.50
2023-03-08T15:39:43.349Z,3.10
2023-03-08T15:42:12.787Z,2.75
2023-03-08T15:44:41.488Z,2.63
2023-03-08T15:47:13.108Z,2.47
2023-03-08T15:49:46.327Z,2.80
2023-03-08T15:52:14.767Z,2.25
2023-03-08T15:54:47.190Z,2.50
2023-03-08T15:57:16.107Z,2.40
2023-03-08T15:59:44.484Z,1.92
2023-03-08T16:02:16.077Z,2.30
2023-03-08T16:04:48.195Z,2.20
2023-03-08T16:07:17.975Z,2.05
2023-03-08T16:09:48.080Z,2.15
2023-03-08T16:12:17.064Z,1.90
2023-03-08T16:14:48.557Z,1.90
2023-03-08T16:17:18.904Z,2.20
2023-03-08T16:19:48.616Z,2.40
2023-03-08T16:22:17.451Z,2.10
2023-03-08T16:24:46.195Z,2.30
2023-03-08T16:27:14.613Z,2.30
2023-03-08T16:29:42.964Z,2.05
2023-03-08T16:32:15.570Z,1.85
2023-03-08T16:34:44.057Z,2.00
2023-03-08T16:37:14.147Z,1.70
2023-03-08T16:39:42.860Z,2.35
2023-03-08T16:42:13.073Z,2.92
2023-03-08T16:44:41.864Z,2.47
2023-03-08T16:47:10.370Z,2.08
2023-03-08T16:49:39.508Z,2.30
2023-03-08T16:52:07.910Z,2.40
2023-03-08T16:54:38.605Z,2.53
2023-03-08T16:57:18.536Z,2.58
2023-03-08T16:59:48.555Z,3.40
2023-03-08T17:02:18.892Z,3.00
2023-03-08T17:04:49.540Z,3.20
2023-03-08T17:07:24.630Z,2.78
2023-03-08T17:09:55.744Z,2.97
2023-03-08T17:12:24.584Z,3.47
2023-03-08T17:14:53.894Z,3.08
2023-03-08T17:17:22.786Z,2.88
2023-03-08T17:19:52.161Z,3.05
2023-03-08T17:22:21.400Z,2.72
2023-03-08T17:24:49.723Z,2.50
2023-03-08T17:27:19.963Z,2.95
2023-03-08T17:29:48.262Z,2.55
2023-03-08T17:32:17.237Z,2.60
2023-03-08T17:34:45.646Z,2.42
2023-03-08T17:37:16.121Z,1.95
2023-03-08T17:39:44.435Z,2.17
2023-03-08T17:42:13.007Z,1.88
2023-03-08T17:44:43.082Z,1.88
2023-03-08T17:47:13.803Z,2.10
2023-03-08T17:49:42.655Z,2.38
2023-03-08T17:52:11.524Z,2.05
2023-03-08T17:54:39.810Z,1.88
2023-03-08T17:57:09.012Z,2.08
2023-03-08T17:59:37.307Z,2.40
2023-03-08T18:02:08.374Z,2.10
2023-03-08T18:04:36.673Z,2.20
2023-03-08T18:07:06.410Z,2.38
2023-03-08T18:09:35.156Z,2.00
2023-03-08T18:12:05.786Z,2.88
2023-03-08T18:14:39.832Z,2.00
2023-03-08T18:17:12.754Z,2.25
2023-03-08T18:19:41.961Z,2.63
2023-03-08T18:22:10.677Z,1.90
2023-03-08T18:24:39.880Z,2.13
2023-03-08T18:27:08.686Z,2.00
2023-03-08T18:29:37.885Z,2.10
2023-03-08T18:32:07.163Z,2.45
2023-03-08T18:34:37.895Z,1.80
2023-03-08T18:37:07.030Z,1.70
2023-03-08T18:39:35.426Z,2.35
2023-03-08T18:42:04.392Z,1.50
2023-03-08T18:44:32.824Z,1.58
2023-03-08T18:47:01.774Z,1.30
2023-03-08T18:49:30.135Z,1.33
2023-03-08T18:52:00.839Z,1.40
2023-03-08T18:54:29.210Z,0.80
2023-03-08T18:56:59.261Z,1.13
2023-03-08T18:59:28.896Z,0.90
2023-03-08T19:01:58.141Z,0.70
2023-03-08T19:04:26.639Z,0.82
2023-03-08T19:06:56.308Z,0.90
2023-03-08T19:09:26.450Z,1.00
2023-03-08T19:11:54.824Z,0.85
2023-03-08T19:14:24.526Z,0.90
2023-03-08T19:16:52.903Z,0.90
2023-03-08T19:19:22.461Z,0.85
2023-03-08T19:21:51.041Z,0.80
2023-03-08T19:24:21.642Z,1.00
2023-03-08T19:26:53.197Z,2.08
2023-03-08T19:29:24.477Z,0.90
2023-03-08T19:31:54.785Z,1.02
2023-03-08T19:34:25.698Z,1.10
2023-03-08T19:36:55.517Z,1.10
2023-03-08T19:39:26.617Z,1.08
2023-03-08T19:41:59.746Z,1.33
2023-03-08T19:44:28.674Z,1.23
2023-03-08T19:46:58.037Z,1.48
2023-03-08T19:49:29.501Z,1.30
2023-03-08T19:52:00.601Z,1.10
2023-03-08T19:54:30.125Z,1.25
2023-03-08T19:57:01.260Z,1.05
2023-03-08T19:59:29.703Z,1.33
2023-03-08T20:01:59.457Z,1.10
2023-03-08T20:04:29.276Z,1.30
2023-03-08T20:07:01.044Z,0.80
2023-03-08T20:09:29.910Z,0.80
2023-03-08T20:11:59.116Z,0.80
2023-03-08T20:14:29.870Z,0.88
2023-03-08T20:16:59.151Z,0.55
2023-03-08T20:19:30.384Z,0.70
2023-03-08T20:21:58.751Z,0.70
2023-03-08T20:24:28.263Z,0.80
2023-03-08T20:26:57.022Z,0.55
2023-03-08T20:29:25.716Z,0.80
2023-03-08T20:31:59.154Z,0.57
2023-03-08T20:34:27.741Z,0.40
2023-03-08T20:36:56.730Z,0.50
2023-03-08T20:39:25.526Z,0.55
2023-03-08T20:41:53.910Z,0.60
2023-03-08T20:44:23.704Z,0.40
2023-03-08T20:46:52.595Z,0.40
2023-03-08T20:49:22.276Z,0.40
2023-03-08T20:51:51.386Z,0.40
2023-03-08T20:54:20.210Z,0.60
2023-03-08T20:56:48.968Z,0.38
2023-03-08T20:59:20.310Z,0.50
2023-03-08T21:01:49.840Z,0.60
2023-03-08T21:04:19.838Z,0.40
2023-03-08T21:06:49.566Z,0.50
2023-03-08T21:09:18.287Z,0.45
2023-03-08T21:11:46.590Z,0.50
2023-03-08T21:14:17.956Z,0.30
2023-03-08T21:16:47.495Z,0.52
2023-03-08T21:19:19.574Z,0.40
2023-03-08T21:21:51.601Z,0.30
2023-03-08T21:24:22.752Z,0.63
2023-03-08T21:26:52.424Z,0.40
2023-03-08T21:29:22.122Z,0.40
2023-03-08T21:31:53.723Z,0.52
2023-03-08T21:34:22.388Z,0.40
2023-03-08T21:36:52.491Z,0.50
2023-03-08T21:39:20.825Z,0.70
2023-03-08T21:41:50.964Z,0.50
2023-03-08T21:44:21.087Z,0.50
2023-03-08T21:46:52.001Z,0.50
2023-03-08T21:49:23.660Z,0.60
2023-03-08T21:51:55.836Z,0.90
2023-03-08T21:54:26.645Z,0.57
2023-03-08T21:56:55.599Z,0.65
2023-03-08T21:59:27.394Z,0.73
2023-03-08T22:01:59.340Z,0.60
2023-03-08T22:04:29.211Z,0.73
2023-03-08T22:06:59.331Z,0.50
2023-03-08T22:09:29.150Z,0.70
2023-03-08T22:11:59.245Z,0.68
2023-03-08T22:14:28.532Z,0.93
2023-03-08T22:16:57.916Z,0.70
2023-03-08T22:19:26.344Z,0.90
2023-03-08T22:21:55.269Z,0.90
2023-03-08T22:24:25.196Z,1.08
2023-03-08T22:26:54.389Z,0.90
2023-03-08T22:29:22.676Z,0.80
2023-03-08T22:31:52.001Z,0.80
2023-03-08T22:34:20.451Z,1.00
2023-03-08T22:36:49.095Z,1.02
2023-03-08T22:39:18.945Z,1.00
2023-03-08T22:41:48.599Z,0.88
2023-03-08T22:44:17.893Z,0.90
2023-03-08T22:46:46.670Z,1.10
2023-03-08T22:49:17.098Z,1.33
2023-03-08T22:51:45.637Z,0.90
2023-03-08T22:54:17.062Z,1.33
2023-03-08T22:56:45.600Z,1.30
2023-03-08T22:59:16.371Z,1.17
2023-03-08T23:01:44.762Z,1.25
2023-03-08T23:04:14.638Z,2.10
2023-03-08T23:06:42.970Z,1.63
2023-03-08T23:09:13.158Z,1.00
2023-03-08T23:11:42.797Z,1.10
2023-03-08T23:14:12.771Z,1.52
2023-03-08T23:16:44.889Z,2.20
2023-03-08T23:19:15.426Z,2.53
2023-03-08T23:21:45.609Z,1.98
2023-03-08T23:24:14.605Z,1.30
2023-03-08T23:26:45.870Z,1.10
2023-03-08T23:29:15.371Z,1.40
2023-03-08T23:31:47.918Z,1.38
2023-03-08T23:34:16.279Z,1.30
2023-03-08T23:36:45.490Z,1.30
2023-03-08T23:39:13.838Z,1.30
2023-03-08T23:41:43.285Z,1.10
2023-03-08T23:44:13.012Z,1.20
2023-03-08T23:46:46.563Z,1.30
2023-03-08T23:49:17.750Z,1.83
2023-03-08T23:51:46.715Z,1.17
2023-03-08T23:54:16.310Z,1.15
2023-03-08T23:56:45.498Z,1.20
2023-03-08T23:59:18.217Z,1.50
